LYBE/BEG METAR and TAF weather

Enter ICAO airport designator
Station Type Date Time Source
LYBE METAR 2018/12/13 20:00 UTC NOAA

LYBE 132000Z 05004KT 7000 NSC 00/M02 Q1020 NOSIG


Station Type Date Time Source
LYBE Decoded METAR 2018/12/13 20:00 UTC NOAA

Beograd / Surcin, Serbia and Montenegro (LYBE) 44-49N 020-17E 99M
Dec 13, 2018 - 03:00 PM EST / 2018.12.13 2000 UTC
Wind: from the NE (050 degrees) at 5 MPH (4 KT):0
Visibility: 4 mile(s):0
Temperature: 32 F (0 C)
Windchill: 26 F (-3 C):1
Dew Point: 28 F (-2 C)
Relative Humidity: 86%
Pressure (altimeter): 30.12 in. Hg (1020 hPa)
ob: LYBE 132000Z 05004KT 7000 NSC 00/M02 Q1020 NOSIG
cycle: 20

Station Type Date Time Source
LYBE TAF 2018/12/13 18:25 UTC NOAA

TAF LYBE 131700Z 1318/1418 09008KT CAVOK TX04/1413Z TNM02/1406Z
TEMPO 1322/1403 3000 BR
TEMPO 1412/1415 4000 -RASN BR
BECMG 1415/1417 3000 -SN BR BKN010 BKN027


Example: see airport list